Time;durP1;ratioP1;P1;durP2;ratioP2;P2;SDS_P1;SDS_P2;PMS_P1;PMS_P2;Temp;Humidity;BMP_temperature;BMP_pressure;BME280_temperature;BME280_humidity;BME280_pressure;Samples;Min_cycle;Max_cycle;Signal;HPM_P1;HPM_P2
2023/12/01 00:01:32;;;;;;;44.70;16.80;;;;;;;;;;5013640;28;20524;-68
2023/12/01 00:03:58;;;;;;;38.90;16.58;;;;;;;;;;5012952;28;20050;-68
2023/12/01 00:06:24;;;;;;;40.10;16.85;;;;;;;;;;5014256;28;20042;-68
2023/12/01 00:08:50;;;;;;;40.83;16.25;;;;;;;;;;5013526;28;20121;-68
2023/12/01 00:11:16;;;;;;;44.28;18.73;;;;;;;;;;5012731;28;20161;-68
2023/12/01 00:13:42;;;;;;;43.08;18.10;;;;;;;;;;5012587;28;20104;-68
2023/12/01 00:16:09;;;;;;;43.63;18.00;;;;;;;;;;5012212;28;20054;-68
2023/12/01 00:18:35;;;;;;;45.80;19.20;;;;;;;;;;5023125;28;20495;-68
2023/12/01 00:21:01;;;;;;;49.22;19.60;;;;;;;;;;5032283;28;20460;-68
2023/12/01 00:23:29;;;;;;;48.70;19.77;;;;;;;;;;5033344;28;20545;-68
2023/12/01 00:25:55;;;;;;;48.67;20.13;;;;;;;;;;5024036;28;20115;-68
2023/12/01 00:28:21;;;;;;;46.22;18.33;;;;;;;;;;5013817;28;20048;-68
2023/12/01 00:30:48;;;;;;;44.70;17.38;;;;;;;;;;5012027;28;20459;-68
2023/12/01 00:33:14;;;;;;;43.40;17.25;;;;;;;;;;5012267;28;20128;-68
2023/12/01 00:35:40;;;;;;;45.50;18.42;;;;;;;;;;5013646;28;20050;-68
2023/12/01 00:38:06;;;;;;;44.00;17.83;;;;;;;;;;5013153;28;20052;-68
2023/12/01 00:40:33;;;;;;;39.50;16.58;;;;;;;;;;5012098;28;20672;-68
2023/12/01 00:43:01;;;;;;;32.33;15.15;;;;;;;;;;5013612;28;20052;-68
2023/12/01 00:45:27;;;;;;;42.63;15.50;;;;;;;;;;5013120;28;20052;-68
2023/12/01 00:47:56;;;;;;;42.10;16.42;;;;;;;;;;5011820;28;20038;-68
2023/12/01 00:50:22;;;;;;;36.10;15.63;;;;;;;;;;5013479;28;20506;-68
2023/12/01 00:52:49;;;;;;;36.08;15.02;;;;;;;;;;5011605;28;20038;-68
2023/12/01 00:55:15;;;;;;;38.25;16.13;;;;;;;;;;5013448;28;20042;-68
2023/12/01 00:57:41;;;;;;;39.90;15.90;;;;;;;;;;5013201;28;20429;-68
2023/12/01 01:00:07;;;;;;;39.28;16.52;;;;;;;;;;5012946;28;20041;-68
2023/12/01 01:02:33;;;;;;;36.05;16.17;;;;;;;;;;5013326;28;20141;-68
2023/12/01 01:04:59;;;;;;;43.83;16.60;;;;;;;;;;5013231;28;20481;-68
2023/12/01 01:07:26;;;;;;;39.67;15.85;;;;;;;;;;5012473;28;20091;-68
2023/12/01 01:09:52;;;;;;;39.70;15.88;;;;;;;;;;5011439;28;20120;-68
2023/12/01 01:12:18;;;;;;;40.17;15.88;;;;;;;;;;5012975;28;20183;-68
2023/12/01 01:15:03;;;;;;;39.40;15.82;;;;;;;;;;5012291;28;20052;-68
2023/12/01 01:17:33;;;;;;;38.17;15.43;;;;;;;;;;5011690;28;20054;-68
2023/12/01 01:20:06;;;;;;;40.67;15.13;;;;;;;;;;5031372;28;20073;-68
2023/12/01 01:22:32;;;;;;;;;;;;;;;;;;5031447;28;20068;-68
2023/12/01 01:24:59;;;;;;;41.80;15.90;;;;;;;;;;5031856;28;19963;-68
2023/12/01 01:27:25;;;;;;;40.65;16.77;;;;;;;;;;5012674;28;20057;-68
2023/12/01 01:29:51;;;;;;;39.95;16.20;;;;;;;;;;5012094;28;20077;-68
2023/12/01 01:32:17;;;;;;;44.88;16.85;;;;;;;;;;5012724;28;20049;-68
2023/12/01 01:34:44;;;;;;;37.33;16.27;;;;;;;;;;5011283;28;20624;-68
2023/12/01 01:37:10;;;;;;;39.53;15.38;;;;;;;;;;5010920;28;20042;-68
2023/12/01 01:39:36;;;;;;;42.03;16.17;;;;;;;;;;5011125;28;20677;-68
2023/12/01 01:42:02;;;;;;;42.63;17.38;;;;;;;;;;5011283;28;20473;-68
2023/12/01 01:44:28;;;;;;;43.22;15.82;;;;;;;;;;5012064;28;20432;-68
2023/12/01 01:46:55;;;;;;;38.83;16.15;;;;;;;;;;5012518;28;20037;-68
2023/12/01 01:49:25;;;;;;;42.38;15.93;;;;;;;;;;5012384;28;20045;-68
2023/12/01 01:51:52;;;;;;;45.55;17.48;;;;;;;;;;5011820;28;20053;-68
2023/12/01 01:54:18;;;;;;;47.15;18.08;;;;;;;;;;5011061;28;20425;-68
2023/12/01 01:56:44;;;;;;;42.10;16.80;;;;;;;;;;5012379;28;20046;-68
2023/12/01 01:59:12;;;;;;;46.33;17.10;;;;;;;;;;5011530;28;20050;-68
2023/12/01 02:01:39;;;;;;;35.75;15.30;;;;;;;;;;5010673;28;20077;-68
2023/12/01 02:04:07;;;;;;;40.03;15.55;;;;;;;;;;5010324;28;20042;-68
2023/12/01 02:06:34;;;;;;;35.40;13.77;;;;;;;;;;5010021;28;20132;-68
2023/12/01 02:09:00;;;;;;;37.25;15.25;;;;;;;;;;5012005;28;20034;-68
2023/12/01 02:11:26;;;;;;;32.45;13.15;;;;;;;;;;5011729;28;20042;-68
2023/12/01 02:13:59;;;;;;;32.95;14.15;;;;;;;;;;5011092;28;20489;-68
2023/12/01 02:16:26;;;;;;;32.78;14.27;;;;;;;;;;5010493;28;20046;-68
2023/12/01 02:18:54;;;;;;;33.65;14.07;;;;;;;;;;5023061;28;20053;-68
2023/12/01 02:21:26;;;;;;;30.42;14.18;;;;;;;;;;5031244;28;20084;-68
2023/12/01 02:23:53;;;;;;;33.20;14.52;;;;;;;;;;5031274;28;20041;-68
2023/12/01 02:26:19;;;;;;;32.10;15.07;;;;;;;;;;5019604;28;20050;-68
2023/12/01 02:28:46;;;;;;;29.88;13.55;;;;;;;;;;5011275;28;20042;-68
2023/12/01 02:31:12;;;;;;;28.90;13.50;;;;;;;;;;5010453;28;20080;-68
2023/12/01 02:33:38;;;;;;;27.10;12.88;;;;;;;;;;5011607;28;20046;-68
2023/12/01 02:36:06;;;;;;;23.90;11.77;;;;;;;;;;5011547;28;20038;-68
2023/12/01 02:38:32;;;;;;;29.92;12.43;;;;;;;;;;5010045;28;20450;-68
2023/12/01 02:40:59;;;;;;;25.13;12.07;;;;;;;;;;5011659;28;20370;-68
2023/12/01 02:43:27;;;;;;;24.20;11.85;;;;;;;;;;5010009;28;20048;-68
2023/12/01 02:45:53;;;;;;;26.00;11.77;;;;;;;;;;5011496;28;20037;-68
2023/12/01 02:48:19;;;;;;;22.80;11.15;;;;;;;;;;5011592;28;20045;-68
2023/12/01 02:50:45;;;;;;;24.20;11.50;;;;;;;;;;5009578;28;20129;-68
2023/12/01 02:53:11;;;;;;;25.15;11.90;;;;;;;;;;5010153;28;20493;-68
2023/12/01 02:55:37;;;;;;;26.52;11.68;;;;;;;;;;5010391;28;20049;-68
2023/12/01 02:58:04;;;;;;;26.80;12.63;;;;;;;;;;5011291;28;20500;-68
2023/12/01 03:00:30;;;;;;;22.08;10.80;;;;;;;;;;5010061;28;20046;-68
2023/12/01 03:02:56;;;;;;;24.88;11.82;;;;;;;;;;5010195;28;20468;-68
2023/12/01 03:05:22;;;;;;;24.67;12.20;;;;;;;;;;5011105;28;20037;-68
2023/12/01 03:07:49;;;;;;;26.70;13.02;;;;;;;;;;5010152;28;20076;-68
2023/12/01 03:10:15;;;;;;;26.33;11.77;;;;;;;;;;5011400;28;20045;-68
2023/12/01 03:12:43;;;;;;;28.63;12.60;;;;;;;;;;5009825;28;20077;-68
2023/12/01 03:15:13;;;;;;;29.35;13.65;;;;;;;;;;5011184;28;20394;-68
2023/12/01 03:17:39;;;;;;;29.40;14.30;;;;;;;;;;5013394;28;20086;-68
2023/12/01 03:20:10;;;;;;;30.60;13.90;;;;;;;;;;5034765;28;20042;-68
2023/12/01 03:22:39;;;;;;;27.75;12.88;;;;;;;;;;5033962;28;20049;-68
2023/12/01 03:25:12;;;;;;;28.58;13.38;;;;;;;;;;5032014;28;20042;-68
2023/12/01 03:27:48;;;;;;;30.55;14.35;;;;;;;;;;5014775;28;20030;-68
2023/12/01 03:30:14;;;;;;;27.77;13.05;;;;;;;;;;5013677;28;20473;-68
2023/12/01 03:32:50;;;;;;;28.38;12.82;;;;;;;;;;5013775;28;20099;-68
2023/12/01 03:35:17;;;;;;;30.95;14.35;;;;;;;;;;5013315;28;20129;-68
2023/12/01 03:37:46;;;;;;;36.92;15.02;;;;;;;;;;5014892;28;20038;-68
2023/12/01 03:40:12;;;;;;;32.78;14.50;;;;;;;;;;5014796;28;20038;-68
2023/12/01 03:42:48;;;;;;;33.83;15.68;;;;;;;;;;5014756;28;20630;-68
2023/12/01 03:45:15;;;;;;;36.85;16.13;;;;;;;;;;5013154;28;20042;-68
2023/12/01 03:47:42;;;;;;;31.88;14.68;;;;;;;;;;5014515;28;20052;-68
2023/12/01 03:50:11;;;;;;;35.55;15.80;;;;;;;;;;5014578;28;20084;-68
2023/12/01 03:52:42;;;;;;;35.35;15.73;;;;;;;;;;5013608;28;20133;-68
2023/12/01 03:55:08;;;;;;;33.00;14.88;;;;;;;;;;5014731;28;20099;-68
2023/12/01 03:57:35;;;;;;;35.03;13.77;;;;;;;;;;5013239;28;20038;-68
2023/12/01 04:00:03;;;;;;;34.42;15.60;;;;;;;;;;5014707;28;20050;-68
2023/12/01 04:02:30;;;;;;;36.63;15.15;;;;;;;;;;5014821;28;20128;-68
2023/12/01 04:04:56;;;;;;;35.17;15.15;;;;;;;;;;5014120;28;20180;-68
2023/12/01 04:07:22;;;;;;;34.58;15.63;;;;;;;;;;5013083;28;20056;-68
2023/12/01 04:09:48;;;;;;;36.45;15.98;;;;;;;;;;5012830;28;20034;-68
2023/12/01 04:12:15;;;;;;;37.78;15.63;;;;;;;;;;5012739;28;20053;-68
2023/12/01 04:14:41;;;;;;;34.63;16.08;;;;;;;;;;5012576;28;20064;-68
2023/12/01 04:17:10;;;;;;;37.67;16.02;;;;;;;;;;5014311;28;20038;-68
2023/12/01 04:19:37;;;;;;;36.85;14.23;;;;;;;;;;5031760;28;20041;-68
2023/12/01 04:22:04;;;;;;;31.50;14.32;;;;;;;;;;5034038;28;20041;-68
2023/12/01 04:24:33;;;;;;;32.97;14.98;;;;;;;;;;5032479;28;20053;-68
2023/12/01 04:27:00;;;;;;;35.75;14.90;;;;;;;;;;4998606;28;20041;-68
2023/12/01 04:29:27;;;;;;;42.65;15.45;;;;;;;;;;5013650;28;20041;-68
2023/12/01 04:31:53;;;;;;;37.03;15.60;;;;;;;;;;5014038;28;20104;-68
2023/12/01 04:34:20;;;;;;;33.45;14.63;;;;;;;;;;5013461;28;20073;-68
2023/12/01 04:36:47;;;;;;;33.95;14.20;;;;;;;;;;5014012;28;20046;-68
2023/12/01 04:39:16;;;;;;;40.00;16.02;;;;;;;;;;5013647;28;20121;-68
2023/12/01 04:41:42;;;;;;;37.97;16.38;;;;;;;;;;5013458;28;20049;-68
2023/12/01 04:44:08;;;;;;;39.38;16.35;;;;;;;;;;5012520;28;20077;-68
2023/12/01 04:46:34;;;;;;;38.30;14.80;;;;;;;;;;5013796;28;20048;-68
2023/12/01 04:49:00;;;;;;;36.97;15.25;;;;;;;;;;5013295;28;20552;-68
2023/12/01 04:51:26;;;;;;;40.20;16.17;;;;;;;;;;5012132;28;20045;-68
2023/12/01 04:53:53;;;;;;;38.30;15.65;;;;;;;;;;5013530;28;20044;-68
2023/12/01 04:56:19;;;;;;;39.90;16.85;;;;;;;;;;5012870;28;20080;-68
2023/12/01 04:58:46;;;;;;;39.33;16.25;;;;;;;;;;5013611;28;20428;-68
2023/12/01 05:01:12;;;;;;;38.78;15.35;;;;;;;;;;5013428;28;20041;-68
2023/12/01 05:03:38;;;;;;;36.55;15.38;;;;;;;;;;5012652;28;20628;-68
2023/12/01 05:06:04;;;;;;;37.58;15.40;;;;;;;;;;5012032;28;20049;-68
2023/12/01 05:08:30;;;;;;;38.42;16.02;;;;;;;;;;5013198;28;20041;-68
2023/12/01 05:10:56;;;;;;;37.10;14.90;;;;;;;;;;5012809;28;20434;-68
2023/12/01 05:13:22;;;;;;;37.85;14.93;;;;;;;;;;5012850;28;20132;-68
2023/12/01 05:15:48;;;;;;;39.10;16.27;;;;;;;;;;5012765;28;20408;-68
2023/12/01 05:18:14;;;;;;;40.03;15.35;;;;;;;;;;5017673;28;20412;-68
2023/12/01 05:20:41;;;;;;;36.28;15.27;;;;;;;;;;5031404;28;20151;-68
2023/12/01 05:23:10;;;;;;;44.97;17.38;;;;;;;;;;5032850;28;20091;-68
2023/12/01 05:25:38;;;;;;;41.13;16.55;;;;;;;;;;5026434;28;20113;-68
2023/12/01 05:28:05;;;;;;;42.17;16.48;;;;;;;;;;5012888;28;20045;-68
2023/12/01 05:30:36;;;;;;;48.08;17.35;;;;;;;;;;5011111;28;20049;-68
2023/12/01 05:33:04;;;;;;;44.33;17.13;;;;;;;;;;5012295;28;20116;-68
2023/12/01 05:35:31;;;;;;;45.22;18.02;;;;;;;;;;5012607;28;20048;-68
2023/12/01 05:37:58;;;;;;;39.72;17.08;;;;;;;;;;5012172;28;20100;-68
2023/12/01 05:40:24;;;;;;;42.83;16.85;;;;;;;;;;5009923;28;20056;-68
2023/12/01 05:42:54;;;;;;;43.65;15.75;;;;;;;;;;5011119;28;20041;-68
2023/12/01 05:45:24;;;;;;;40.13;15.80;;;;;;;;;;5011876;28;20050;-68
2023/12/01 05:47:54;;;;;;;42.33;16.23;;;;;;;;;;5010209;28;20046;-68
2023/12/01 05:50:24;;;;;;;44.45;15.95;;;;;;;;;;5010754;28;20056;-68
2023/12/01 05:52:51;;;;;;;45.22;16.88;;;;;;;;;;5010741;28;20046;-68
2023/12/01 05:55:18;;;;;;;39.67;16.15;;;;;;;;;;5010307;28;20380;-68
2023/12/01 05:57:48;;;;;;;42.63;17.17;;;;;;;;;;5012126;28;20037;-68
2023/12/01 06:00:19;;;;;;;40.80;15.65;;;;;;;;;;5010615;28;20048;-68
2023/12/01 06:02:46;;;;;;;41.30;16.25;;;;;;;;;;5011855;28;20553;-68
2023/12/01 06:05:16;;;;;;;37.83;15.77;;;;;;;;;;5010673;28;20129;-68
2023/12/01 06:07:44;;;;;;;45.05;16.38;;;;;;;;;;5011571;28;20096;-68
2023/12/01 06:10:13;;;;;;;39.40;16.83;;;;;;;;;;4994076;28;20041;-68
2023/12/01 06:12:40;;;;;;;40.25;15.52;;;;;;;;;;5011791;28;20077;-68
2023/12/01 06:15:07;;;;;;;39.90;16.17;;;;;;;;;;5011500;28;20081;-68
2023/12/01 06:17:33;;;;;;;39.78;15.98;;;;;;;;;;5010886;28;20038;-68
2023/12/01 06:19:59;;;;;;;40.35;16.10;;;;;;;;;;5031274;28;20047;-68
2023/12/01 06:22:25;;;;;;;36.30;15.50;;;;;;;;;;5031231;28;20069;-68
2023/12/01 06:24:51;;;;;;;38.63;15.90;;;;;;;;;;5031004;28;20111;-68
2023/12/01 06:27:17;;;;;;;37.13;15.73;;;;;;;;;;5010490;28;20038;-68
2023/12/01 06:29:44;;;;;;;42.08;15.18;;;;;;;;;;5010323;28;20086;-68
2023/12/01 06:32:13;;;;;;;40.65;16.25;;;;;;;;;;5011232;28;20074;-68
2023/12/01 06:34:39;;;;;;;37.25;15.82;;;;;;;;;;5018368;28;20041;-67
2023/12/01 06:37:05;;;;;;;38.90;14.52;;;;;;;;;;5013308;28;20639;-67
2023/12/01 06:39:31;;;;;;;39.53;15.48;;;;;;;;;;5030569;28;20774;-67
2023/12/01 06:41:57;;;;;;;37.40;15.88;;;;;;;;;;5030694;28;20046;-67
2023/12/01 06:44:23;;;;;;;41.33;15.43;;;;;;;;;;5030959;28;20041;-66
2023/12/01 06:46:49;;;;;;;40.90;16.17;;;;;;;;;;5014632;28;20092;-65
2023/12/01 06:49:15;;;;;;;41.58;15.40;;;;;;;;;;5014373;28;20357;-66
2023/12/01 06:51:41;;;;;;;40.25;15.50;;;;;;;;;;5030415;28;20045;-66
2023/12/01 06:54:11;;;;;;;39.60;15.50;;;;;;;;;;5026391;28;20112;-67
2023/12/01 06:56:37;;;;;;;44.78;15.20;;;;;;;;;;5025118;28;20045;-66
2023/12/01 06:59:06;;;;;;;44.95;16.05;;;;;;;;;;5018021;28;20037;-67
2023/12/01 07:01:35;;;;;;;37.03;14.93;;;;;;;;;;5023340;28;20056;-67
2023/12/01 07:04:07;;;;;;;40.95;15.65;;;;;;;;;;5011007;28;20100;-67
2023/12/01 07:06:33;;;;;;;;;;;;;;;;;;5024226;28;20128;-67
2023/12/01 07:08:59;;;;;;;38.67;15.55;;;;;;;;;;5029334;28;20338;-67
2023/12/01 07:11:25;;;;;;;34.58;14.52;;;;;;;;;;5011422;28;20073;-65
2023/12/01 07:13:51;;;;;;;42.13;15.02;;;;;;;;;;5018289;28;20093;-68
2023/12/01 07:16:19;;;;;;;35.60;13.77;;;;;;;;;;5030193;28;20116;-67
2023/12/01 07:18:45;;;;;;;36.90;15.20;;;;;;;;;;5024852;28;20111;-67
2023/12/01 07:21:11;;;;;;;39.47;15.68;;;;;;;;;;5028354;28;20124;-69
2023/12/01 07:23:40;;;;;;;41.08;16.60;;;;;;;;;;5021368;28;20041;-66
2023/12/01 07:26:07;;;;;;;38.95;15.82;;;;;;;;;;5022443;28;20048;-68
2023/12/01 07:28:33;;;;;;;36.97;14.20;;;;;;;;;;5026802;28;20034;-69
2023/12/01 07:31:00;;;;;;;38.55;15.02;;;;;;;;;;5019964;28;20049;-67
2023/12/01 07:33:26;;;;;;;39.88;14.55;;;;;;;;;;5025790;28;20439;-67
2023/12/01 07:35:52;;;;;;;39.28;14.43;;;;;;;;;;5012659;28;20049;-67
2023/12/01 07:38:20;;;;;;;36.17;13.55;;;;;;;;;;5022819;28;20726;-67
2023/12/01 07:40:46;;;;;;;36.58;13.38;;;;;;;;;;5016833;28;20061;-66
2023/12/01 07:43:12;;;;;;;36.95;13.70;;;;;;;;;;5025564;28;20124;-67
2023/12/01 07:45:38;;;;;;;41.35;14.20;;;;;;;;;;5024307;28;20045;-68
2023/12/01 07:48:05;;;;;;;33.67;13.45;;;;;;;;;;5024089;28;20475;-66
2023/12/01 07:50:31;;;;;;;34.47;14.07;;;;;;;;;;4995930;28;20061;-68
2023/12/01 07:52:57;;;;;;;39.83;15.57;;;;;;;;;;5028172;28;20435;-66
2023/12/01 07:55:24;;;;;;;34.85;14.32;;;;;;;;;;5029035;28;20091;-69
2023/12/01 07:57:51;;;;;;;33.35;14.00;;;;;;;;;;5021471;28;20051;-67
2023/12/01 08:00:17;;;;;;;34.38;14.40;;;;;;;;;;5024794;28;20112;-68
2023/12/01 08:02:44;;;;;;;34.90;14.88;;;;;;;;;;5019208;28;20037;-68
2023/12/01 08:05:13;;;;;;;33.15;13.65;;;;;;;;;;5028028;28;20072;-67
2023/12/01 08:07:43;;;;;;;34.40;13.70;;;;;;;;;;5012424;28;20050;-68
2023/12/01 08:10:09;;;;;;;35.75;14.55;;;;;;;;;;5025347;28;20061;-69
2023/12/01 08:12:36;;;;;;;38.15;14.75;;;;;;;;;;5029338;28;20073;-69
2023/12/01 08:15:02;;;;;;;36.05;13.68;;;;;;;;;;5017394;28;20084;-67
2023/12/01 08:17:28;;;;;;;36.97;13.93;;;;;;;;;;5024351;28;20033;-68
2023/12/01 08:19:54;;;;;;;33.05;12.98;;;;;;;;;;5028313;28;20048;-68
2023/12/01 08:22:20;;;;;;;33.05;13.52;;;;;;;;;;5023233;28;20446;-67
2023/12/01 08:24:46;;;;;;;34.80;13.98;;;;;;;;;;5030712;28;20500;-68
2023/12/01 08:27:12;;;;;;;33.90;14.20;;;;;;;;;;5021350;28;20050;-69
2023/12/01 08:29:39;;;;;;;34.45;13.43;;;;;;;;;;5027648;28;20038;-67
2023/12/01 08:32:05;;;;;;;41.78;14.82;;;;;;;;;;5040201;28;20042;-68
2023/12/01 08:34:32;;;;;;;34.60;14.30;;;;;;;;;;5015371;28;20060;-68
2023/12/01 08:36:58;;;;;;;37.60;14.02;;;;;;;;;;5016926;28;20050;-68
2023/12/01 08:39:24;;;;;;;36.78;12.95;;;;;;;;;;5022997;28;20049;-69
2023/12/01 08:41:53;;;;;;;37.30;14.07;;;;;;;;;;5027825;28;20491;-69
2023/12/01 08:44:20;;;;;;;38.92;14.77;;;;;;;;;;5024808;28;20045;-67
2023/12/01 08:46:46;;;;;;;34.33;14.13;;;;;;;;;;5029518;28;20037;-67
2023/12/01 08:49:12;;;;;;;39.22;13.93;;;;;;;;;;5029975;28;20640;-66
2023/12/01 08:51:38;;;;;;;38.50;15.05;;;;;;;;;;5016946;28;20040;-68
2023/12/01 08:54:04;;;;;;;35.45;15.25;;;;;;;;;;5039560;28;20546;-69
2023/12/01 08:56:32;;;;;;;40.03;15.30;;;;;;;;;;5026184;28;20068;-67
2023/12/01 08:58:58;;;;;;;35.53;14.27;;;;;;;;;;5030807;28;20045;-66
2023/12/01 09:01:24;;;;;;;40.25;15.65;;;;;;;;;;5039841;28;20045;-68
2023/12/01 09:03:50;;;;;;;30.83;13.02;;;;;;;;;;5028558;28;20041;-67
2023/12/01 09:06:16;;;;;;;38.75;14.45;;;;;;;;;;5024798;28;20037;-68
2023/12/01 09:08:42;;;;;;;36.85;14.30;;;;;;;;;;5011153;28;20491;-67
2023/12/01 09:11:08;;;;;;;36.30;14.43;;;;;;;;;;5028599;28;20384;-67
2023/12/01 09:13:34;;;;;;;38.65;15.32;;;;;;;;;;5022705;28;20057;-68
2023/12/01 09:16:01;;;;;;;34.78;14.32;;;;;;;;;;5027698;28;20119;-67
2023/12/01 09:18:27;;;;;;;34.72;14.98;;;;;;;;;;5020705;28;20062;-67
2023/12/01 09:20:53;;;;;;;35.92;14.02;;;;;;;;;;5019166;28;20539;-66
2023/12/01 09:23:19;;;;;;;30.92;12.73;;;;;;;;;;5028785;28;20045;-67
2023/12/01 09:25:46;;;;;;;33.72;12.82;;;;;;;;;;5022378;28;20484;-67
2023/12/01 09:28:12;;;;;;;32.80;13.32;;;;;;;;;;5023352;28;20072;-67
2023/12/01 09:30:39;;;;;;;31.27;13.23;;;;;;;;;;5030313;28;20175;-66
2023/12/01 09:33:06;;;;;;;32.72;12.70;;;;;;;;;;5019989;28;20037;-68
2023/12/01 09:35:33;;;;;;;29.42;13.18;;;;;;;;;;5026054;28;20049;-67
2023/12/01 09:37:59;;;;;;;28.02;11.60;;;;;;;;;;5027549;28;20041;-67
2023/12/01 09:40:26;;;;;;;29.02;11.65;;;;;;;;;;5030894;28;20049;-67
2023/12/01 09:42:52;;;;;;;30.73;12.52;;;;;;;;;;5030084;28;20048;-66
2023/12/01 09:45:21;;;;;;;28.90;12.52;;;;;;;;;;5027547;28;20033;-68
2023/12/01 09:47:52;;;;;;;29.88;12.00;;;;;;;;;;5027610;28;20049;-68
2023/12/01 09:50:18;;;;;;;25.85;11.75;;;;;;;;;;5017299;28;20045;-66
2023/12/01 09:52:45;;;;;;;27.42;11.52;;;;;;;;;;5024477;28;20048;-68
2023/12/01 09:55:11;;;;;;;25.55;11.07;;;;;;;;;;5036942;28;20045;-68
2023/12/01 09:57:38;;;;;;;25.85;10.65;;;;;;;;;;5018785;28;20060;-69
2023/12/01 10:00:10;;;;;;;26.13;11.68;;;;;;;;;;5044156;28;20060;-69
2023/12/01 10:02:36;;;;;;;;;;;;;;;;;;5027900;28;20415;-69
2023/12/01 10:05:13;;;;;;;24.67;11.70;;;;;;;;;;5024356;28;19924;-68
2023/12/01 10:07:39;;;;;;;25.45;11.68;;;;;;;;;;5028632;28;20052;-69
2023/12/01 10:10:22;;;;;;;23.98;11.02;;;;;;;;;;5018867;28;20112;-69
2023/12/01 10:12:58;;;;;;;24.92;11.18;;;;;;;;;;5024543;28;20576;-69
2023/12/01 10:15:25;;;;;;;25.98;11.55;;;;;;;;;;5013150;28;20046;-69
2023/12/01 10:17:55;;;;;;;26.20;12.38;;;;;;;;;;5010149;28;20042;-70
2023/12/01 10:20:21;;;;;;;25.63;11.57;;;;;;;;;;5016149;28;20042;-69
2023/12/01 10:22:51;;;;;;;28.52;12.98;;;;;;;;;;5022060;28;20468;-68
2023/12/01 10:25:18;;;;;;;23.98;11.60;;;;;;;;;;5038934;28;20042;-69
2023/12/01 10:27:54;;;;;;;22.95;11.20;;;;;;;;;;5025857;28;20041;-67
2023/12/01 10:30:21;;;;;;;25.55;13.02;;;;;;;;;;5021402;28;20747;-68
2023/12/01 10:32:48;;;;;;;27.45;11.55;;;;;;;;;;5021151;28;20393;-68
2023/12/01 10:35:15;;;;;;;21.90;10.02;;;;;;;;;;5022438;28;20049;-67
2023/12/01 10:37:43;;;;;;;23.75;10.38;;;;;;;;;;5025721;28;20045;-68
2023/12/01 10:40:13;;;;;;;24.65;10.80;;;;;;;;;;5019250;28;20497;-67
2023/12/01 10:42:40;;;;;;;23.95;10.70;;;;;;;;;;5021623;28;20507;-68
2023/12/01 10:45:07;;;;;;;20.13;9.93;;;;;;;;;;5022717;28;20044;-69
2023/12/01 10:47:34;;;;;;;26.10;10.05;;;;;;;;;;5025144;28;20041;-69
2023/12/01 10:50:02;;;;;;;19.58;9.00;;;;;;;;;;5021323;28;20038;-67
2023/12/01 10:52:28;;;;;;;19.63;8.90;;;;;;;;;;5028365;28;20045;-67
2023/12/01 10:54:54;;;;;;;18.33;9.38;;;;;;;;;;5019213;28;20038;-68
2023/12/01 10:57:53;;;;;;;21.85;10.15;;;;;;;;;;5030399;28;20117;-68
2023/12/01 11:00:31;;;;;;;21.17;8.80;;;;;;;;;;4997548;28;20045;-68
2023/12/01 11:03:00;;;;;;;18.48;9.40;;;;;;;;;;5015835;28;20508;-68
2023/12/01 11:05:30;;;;;;;19.90;9.38;;;;;;;;;;5027857;28;20037;-68
2023/12/01 11:08:27;;;;;;;20.92;9.27;;;;;;;;;;5020020;28;20381;-67
2023/12/01 11:11:11;;;;;;;20.75;9.98;;;;;;;;;;5019626;28;20053;-68
2023/12/01 11:13:56;;;;;;;23.05;10.25;;;;;;;;;;5029377;28;20057;-68
2023/12/01 11:16:22;;;;;;;20.85;10.48;;;;;;;;;;5030918;28;20513;-68
2023/12/01 11:18:48;;;;;;;19.83;10.00;;;;;;;;;;5017065;28;20037;-68
2023/12/01 11:21:17;;;;;;;20.35;9.85;;;;;;;;;;5023615;28;20498;-68
2023/12/01 11:23:43;;;;;;;18.05;9.80;;;;;;;;;;5027096;28;20045;-68
2023/12/01 11:26:10;;;;;;;21.20;10.63;;;;;;;;;;5018705;28;20041;-67
2023/12/01 11:31:13;;;;;;;21.00;10.68;;;;;;;;;;5024756;28;20050;-69
2023/12/01 11:33:40;;;;;;;19.40;10.27;;;;;;;;;;5028542;28;20377;-67
2023/12/01 11:36:21;;;;;;;19.98;10.60;;;;;;;;;;5029192;28;20041;-67
2023/12/01 11:39:16;;;;;;;18.77;10.20;;;;;;;;;;5030198;28;20049;-67
2023/12/01 11:41:43;;;;;;;18.95;9.75;;;;;;;;;;5021919;28;20396;-68
2023/12/01 11:44:10;;;;;;;17.75;9.57;;;;;;;;;;5033443;28;20438;-67
2023/12/01 11:46:38;;;;;;;18.75;9.90;;;;;;;;;;5030897;28;20483;-68
2023/12/01 11:49:05;;;;;;;18.60;10.23;;;;;;;;;;5016141;28;20046;-69
2023/12/01 11:51:31;;;;;;;21.48;10.48;;;;;;;;;;5011853;28;20468;-70
2023/12/01 11:53:58;;;;;;;19.95;10.75;;;;;;;;;;5024121;28;20076;-68
2023/12/01 11:56:25;;;;;;;19.33;10.57;;;;;;;;;;5028198;28;20053;-67
2023/12/01 11:58:52;;;;;;;19.27;10.48;;;;;;;;;;5031322;28;20064;-68
2023/12/01 12:01:19;;;;;;;20.65;11.10;;;;;;;;;;5031379;28;20046;-67
2023/12/01 12:03:53;;;;;;;21.73;11.20;;;;;;;;;;5024897;28;20044;-66
2023/12/01 12:06:19;;;;;;;19.65;10.32;;;;;;;;;;5017315;28;20065;-62
2023/12/01 12:08:46;;;;;;;22.48;11.05;;;;;;;;;;5015837;28;20042;-63
2023/12/01 12:11:13;;;;;;;22.58;11.98;;;;;;;;;;5024845;28;20547;-63
2023/12/01 12:13:39;;;;;;;22.88;11.55;;;;;;;;;;5015950;28;20061;-63
2023/12/01 12:16:06;;;;;;;20.08;11.45;;;;;;;;;;5034488;28;20077;-64
2023/12/01 12:18:32;;;;;;;22.95;12.35;;;;;;;;;;5026407;28;20104;-66
2023/12/01 12:21:02;;;;;;;24.98;11.50;;;;;;;;;;5020387;28;20038;-63
2023/12/01 12:23:34;;;;;;;20.25;11.40;;;;;;;;;;5035094;28;20029;-64
2023/12/01 12:26:16;;;;;;;19.05;11.10;;;;;;;;;;5029350;28;20042;-64
2023/12/01 12:28:44;;;;;;;20.40;11.00;;;;;;;;;;5018427;28;20052;-62
2023/12/01 12:31:10;;;;;;;24.70;12.23;;;;;;;;;;5027811;28;20042;-62
2023/12/01 12:33:36;;;;;;;20.23;11.35;;;;;;;;;;5033271;28;20038;-63
2023/12/01 12:36:04;;;;;;;22.73;11.73;;;;;;;;;;5021849;28;20176;-63
2023/12/01 12:38:30;;;;;;;21.10;11.55;;;;;;;;;;5028985;28;20037;-64
2023/12/01 12:40:56;;;;;;;23.17;12.38;;;;;;;;;;5031386;28;20079;-65
2023/12/01 12:43:22;;;;;;;22.90;12.32;;;;;;;;;;5033890;28;20041;-64
2023/12/01 12:45:53;;;;;;;24.75;12.88;;;;;;;;;;5021726;28;20045;-64
2023/12/01 12:48:24;;;;;;;20.33;11.48;;;;;;;;;;5017248;28;20045;-64
2023/12/01 12:50:50;;;;;;;26.63;13.23;;;;;;;;;;5017848;28;20132;-64
2023/12/01 12:53:17;;;;;;;22.38;12.48;;;;;;;;;;5022402;28;20038;-64
2023/12/01 12:55:43;;;;;;;21.85;12.10;;;;;;;;;;5020791;28;20037;-65
2023/12/01 12:58:12;;;;;;;23.23;11.63;;;;;;;;;;5021365;28;20113;-65
2023/12/01 13:00:38;;;;;;;21.35;11.27;;;;;;;;;;5013900;28;20554;-65
2023/12/01 13:03:04;;;;;;;22.90;11.68;;;;;;;;;;5016146;28;20558;-64
2023/12/01 13:05:30;;;;;;;25.92;12.02;;;;;;;;;;5028895;28;20045;-64
2023/12/01 13:07:57;;;;;;;23.45;12.38;;;;;;;;;;5017689;28;20089;-64
2023/12/01 13:10:24;;;;;;;22.02;12.10;;;;;;;;;;5025718;28;20041;-64
2023/12/01 13:12:51;;;;;;;22.98;11.82;;;;;;;;;;5031948;28;20045;-64
2023/12/01 13:15:17;;;;;;;21.40;12.00;;;;;;;;;;5027634;28;20052;-65
2023/12/01 13:17:44;;;;;;;19.50;11.52;;;;;;;;;;5047044;28;20045;-63
2023/12/01 13:20:10;;;;;;;21.52;11.40;;;;;;;;;;5026103;28;20068;-63
2023/12/01 13:22:36;;;;;;;23.92;12.35;;;;;;;;;;5031171;28;20041;-63
2023/12/01 13:25:02;;;;;;;20.92;12.07;;;;;;;;;;5028672;28;20041;-63
2023/12/01 13:27:28;;;;;;;21.70;11.60;;;;;;;;;;5022021;28;20499;-63
2023/12/01 13:29:55;;;;;;;22.30;12.35;;;;;;;;;;5030869;28;20041;-62
2023/12/01 13:32:21;;;;;;;19.75;11.63;;;;;;;;;;5024248;28;20471;-64
2023/12/01 13:34:47;;;;;;;22.52;12.98;;;;;;;;;;5024029;28;20049;-64
2023/12/01 13:37:13;;;;;;;21.95;12.18;;;;;;;;;;5026873;28;20049;-64
2023/12/01 13:39:40;;;;;;;21.83;12.85;;;;;;;;;;5023516;28;20048;-64
2023/12/01 13:42:07;;;;;;;19.02;11.55;;;;;;;;;;5029597;28;20131;-64
2023/12/01 13:44:33;;;;;;;21.52;12.27;;;;;;;;;;5015628;28;20064;-64
2023/12/01 13:46:59;;;;;;;22.63;12.90;;;;;;;;;;5014978;28;20503;-65
2023/12/01 13:49:25;;;;;;;23.27;12.57;;;;;;;;;;5021070;28;20044;-65
2023/12/01 13:51:51;;;;;;;21.35;12.05;;;;;;;;;;5030194;28;20434;-65
2023/12/01 13:54:17;;;;;;;22.52;13.27;;;;;;;;;;5031767;28;20041;-66
2023/12/01 13:56:43;;;;;;;20.25;10.73;;;;;;;;;;5022810;28;20045;-66
2023/12/01 13:59:10;;;;;;;21.88;11.50;;;;;;;;;;5031228;28;20053;-66
2023/12/01 14:01:36;;;;;;;22.38;11.80;;;;;;;;;;5029996;28;20069;-66
2023/12/01 14:04:04;;;;;;;20.42;11.55;;;;;;;;;;5029927;28;20522;-64
2023/12/01 14:06:30;;;;;;;21.30;11.50;;;;;;;;;;5022780;28;20048;-64
2023/12/01 14:08:56;;;;;;;21.83;11.95;;;;;;;;;;5031782;28;20060;-65
2023/12/01 14:11:22;;;;;;;22.08;12.02;;;;;;;;;;5029608;28;20415;-64
2023/12/01 14:13:48;;;;;;;20.60;12.05;;;;;;;;;;5031730;28;20099;-66
2023/12/01 14:16:14;;;;;;;18.20;10.75;;;;;;;;;;5026408;28;20057;-66
2023/12/01 14:18:41;;;;;;;22.10;11.68;;;;;;;;;;5027925;28;20049;-66
2023/12/01 14:21:07;;;;;;;22.55;12.18;;;;;;;;;;5026490;28;20612;-66
2023/12/01 14:23:33;;;;;;;19.80;11.07;;;;;;;;;;5025806;28;20042;-67